Aviation Digital Data Service (ADDS)

Output produced by METARs form (1112 UTC 22 November 2017)
found at http://aviationweather.gov/adds/metars/
 
KHPN 221017Z 2210/2306 00000KT P6SM SCT035 OVC120 
     FM221200 VRB03KT 4SM -RA BR OVC010 
     TEMPO 2212/2216 2SM RA BR OVC007 
     FM221600 31008KT P6SM SCT035 BKN080 
     FM221800 32016G24KT P6SM SCT040 SCT250 
     FM230200 32013G19KT P6SM SKC 
     FM230400 32010KT P6SM SKC AMD NOT SKED